sensor_id;sensor_type;location;lat;lon;timestamp;P1;durP1;ratioP1;P2;durP2;ratioP2
45326;SDS011;31062;49.678;24.560;2023-04-25T00:02:39;7.97;;;4.70;;
45326;SDS011;31062;49.678;24.560;2023-04-25T00:05:26;7.85;;;4.00;;
45326;SDS011;31062;49.678;24.560;2023-04-25T00:08:12;7.70;;;3.92;;
45326;SDS011;31062;49.678;24.560;2023-04-25T00:10:57;9.63;;;3.90;;
45326;SDS011;31062;49.678;24.560;2023-04-25T00:13:44;5.40;;;4.15;;
45326;SDS011;31062;49.678;24.560;2023-04-25T00:16:32;5.03;;;3.45;;
45326;SDS011;31062;49.678;24.560;2023-04-25T00:19:20;9.30;;;4.05;;
45326;SDS011;31062;49.678;24.560;2023-04-25T00:22:05;8.35;;;3.75;;
45326;SDS011;31062;49.678;24.560;2023-04-25T00:24:51;4.65;;;3.45;;
45326;SDS011;31062;49.678;24.560;2023-04-25T00:27:38;4.35;;;3.90;;
45326;SDS011;31062;49.678;24.560;2023-04-25T00:30:24;8.98;;;3.85;;
45326;SDS011;31062;49.678;24.560;2023-04-25T00:33:09;5.72;;;4.20;;
45326;SDS011;31062;49.678;24.560;2023-04-25T00:35:55;8.15;;;3.97;;
45326;SDS011;31062;49.678;24.560;2023-04-25T00:38:41;8.35;;;4.75;;
45326;SDS011;31062;49.678;24.560;2023-04-25T00:41:26;9.82;;;3.83;;
45326;SDS011;31062;49.678;24.560;2023-04-25T00:44:13;8.77;;;4.30;;
45326;SDS011;31062;49.678;24.560;2023-04-25T00:47:02;4.85;;;3.85;;
45326;SDS011;31062;49.678;24.560;2023-04-25T00:49:48;6.15;;;4.43;;
45326;SDS011;31062;49.678;24.560;2023-04-25T00:52:34;6.78;;;3.65;;
45326;SDS011;31062;49.678;24.560;2023-04-25T00:55:20;5.97;;;3.67;;
45326;SDS011;31062;49.678;24.560;2023-04-25T00:58:06;5.25;;;3.83;;
45326;SDS011;31062;49.678;24.560;2023-04-25T01:00:51;5.25;;;3.85;;
45326;SDS011;31062;49.678;24.560;2023-04-25T01:03:38;6.22;;;3.78;;
45326;SDS011;31062;49.678;24.560;2023-04-25T01:06:28;5.15;;;4.30;;
45326;SDS011;31062;49.678;24.560;2023-04-25T01:09:13;10.40;;;4.13;;
45326;SDS011;31062;49.678;24.560;2023-04-25T01:11:58;10.00;;;4.65;;
45326;SDS011;31062;49.678;24.560;2023-04-25T01:14:45;6.10;;;3.95;;
45326;SDS011;31062;49.678;24.560;2023-04-25T01:17:31;5.40;;;3.72;;
45326;SDS011;31062;49.678;24.560;2023-04-25T01:20:20;5.18;;;4.00;;
45326;SDS011;31062;49.678;24.560;2023-04-25T01:23:08;8.07;;;4.20;;
45326;SDS011;31062;49.678;24.560;2023-04-25T01:25:54;5.28;;;4.22;;
45326;SDS011;31062;49.678;24.560;2023-04-25T01:28:40;6.95;;;4.10;;
45326;SDS011;31062;49.678;24.560;2023-04-25T01:31:27;8.02;;;4.82;;
45326;SDS011;31062;49.678;24.560;2023-04-25T01:34:13;5.20;;;4.32;;
45326;SDS011;31062;49.678;24.560;2023-04-25T01:36:59;11.57;;;4.85;;
45326;SDS011;31062;49.678;24.560;2023-04-25T01:39:46;7.78;;;4.40;;
45326;SDS011;31062;49.678;24.560;2023-04-25T01:42:34;5.65;;;4.72;;
45326;SDS011;31062;49.678;24.560;2023-04-25T01:45:20;6.38;;;4.65;;
45326;SDS011;31062;49.678;24.560;2023-04-25T01:48:07;5.38;;;4.22;;
45326;SDS011;31062;49.678;24.560;2023-04-25T01:50:54;8.40;;;4.35;;
45326;SDS011;31062;49.678;24.560;2023-04-25T01:53:39;7.18;;;4.45;;
45326;SDS011;31062;49.678;24.560;2023-04-25T01:56:29;9.88;;;4.55;;
45326;SDS011;31062;49.678;24.560;2023-04-25T01:59:15;9.27;;;4.43;;
45326;SDS011;31062;49.678;24.560;2023-04-25T02:02:30;7.25;;;4.30;;
45326;SDS011;31062;49.678;24.560;2023-04-25T02:05:17;9.05;;;4.80;;
45326;SDS011;31062;49.678;24.560;2023-04-25T02:08:04;6.10;;;4.53;;
45326;SDS011;31062;49.678;24.560;2023-04-25T02:10:51;6.50;;;4.28;;
45326;SDS011;31062;49.678;24.560;2023-04-25T02:13:37;7.65;;;4.30;;
45326;SDS011;31062;49.678;24.560;2023-04-25T02:16:47;7.72;;;4.45;;
45326;SDS011;31062;49.678;24.560;2023-04-25T02:19:34;5.65;;;4.47;;
45326;SDS011;31062;49.678;24.560;2023-04-25T02:22:20;6.97;;;4.70;;
45326;SDS011;31062;49.678;24.560;2023-04-25T02:25:05;4.63;;;3.85;;
45326;SDS011;31062;49.678;24.560;2023-04-25T02:27:53;6.82;;;4.18;;
45326;SDS011;31062;49.678;24.560;2023-04-25T02:30:39;5.55;;;4.32;;
45326;SDS011;31062;49.678;24.560;2023-04-25T02:33:24;4.25;;;3.83;;
45326;SDS011;31062;49.678;24.560;2023-04-25T02:36:10;4.55;;;3.80;;
45326;SDS011;31062;49.678;24.560;2023-04-25T02:38:55;5.20;;;3.83;;
45326;SDS011;31062;49.678;24.560;2023-04-25T02:41:41;8.02;;;3.60;;
45326;SDS011;31062;49.678;24.560;2023-04-25T02:44:26;7.43;;;3.83;;
45326;SDS011;31062;49.678;24.560;2023-04-25T02:47:11;5.22;;;4.50;;
45326;SDS011;31062;49.678;24.560;2023-04-25T02:49:57;6.18;;;4.72;;
45326;SDS011;31062;49.678;24.560;2023-04-25T02:52:42;4.30;;;3.75;;
45326;SDS011;31062;49.678;24.560;2023-04-25T02:55:34;8.15;;;4.22;;
45326;SDS011;31062;49.678;24.560;2023-04-25T02:58:22;9.45;;;5.78;;
45326;SDS011;31062;49.678;24.560;2023-04-25T03:01:09;5.90;;;4.65;;
45326;SDS011;31062;49.678;24.560;2023-04-25T03:03:55;6.85;;;4.15;;
45326;SDS011;31062;49.678;24.560;2023-04-25T03:06:42;4.50;;;3.88;;
45326;SDS011;31062;49.678;24.560;2023-04-25T03:09:27;14.13;;;4.63;;
45326;SDS011;31062;49.678;24.560;2023-04-25T03:12:13;5.85;;;5.18;;
45326;SDS011;31062;49.678;24.560;2023-04-25T03:15:02;6.45;;;4.85;;
45326;SDS011;31062;49.678;24.560;2023-04-25T03:17:48;6.60;;;5.07;;
45326;SDS011;31062;49.678;24.560;2023-04-25T03:20:34;4.97;;;4.38;;
45326;SDS011;31062;49.678;24.560;2023-04-25T03:23:21;6.07;;;4.95;;
45326;SDS011;31062;49.678;24.560;2023-04-25T03:26:06;6.25;;;4.80;;
45326;SDS011;31062;49.678;24.560;2023-04-25T03:28:52;5.80;;;4.78;;
45326;SDS011;31062;49.678;24.560;2023-04-25T03:31:38;8.50;;;5.70;;
45326;SDS011;31062;49.678;24.560;2023-04-25T03:34:24;6.82;;;5.60;;
45326;SDS011;31062;49.678;24.560;2023-04-25T03:37:09;5.07;;;4.57;;
45326;SDS011;31062;49.678;24.560;2023-04-25T03:39:56;7.05;;;4.88;;
45326;SDS011;31062;49.678;24.560;2023-04-25T03:42:49;7.47;;;4.65;;
45326;SDS011;31062;49.678;24.560;2023-04-25T03:45:36;5.28;;;4.57;;
45326;SDS011;31062;49.678;24.560;2023-04-25T03:48:21;9.10;;;4.78;;
45326;SDS011;31062;49.678;24.560;2023-04-25T03:51:07;5.40;;;4.45;;
45326;SDS011;31062;49.678;24.560;2023-04-25T03:53:56;6.97;;;4.50;;
45326;SDS011;31062;49.678;24.560;2023-04-25T03:56:48;10.85;;;4.90;;
45326;SDS011;31062;49.678;24.560;2023-04-25T03:59:37;8.85;;;4.75;;
45326;SDS011;31062;49.678;24.560;2023-04-25T04:02:24;5.15;;;4.65;;
45326;SDS011;31062;49.678;24.560;2023-04-25T04:05:11;13.65;;;4.68;;
45326;SDS011;31062;49.678;24.560;2023-04-25T04:08:04;6.82;;;4.60;;
45326;SDS011;31062;49.678;24.560;2023-04-25T04:10:50;8.00;;;4.50;;
45326;SDS011;31062;49.678;24.560;2023-04-25T04:13:36;9.88;;;4.38;;
45326;SDS011;31062;49.678;24.560;2023-04-25T04:16:23;5.63;;;4.65;;
45326;SDS011;31062;49.678;24.560;2023-04-25T04:19:10;5.05;;;4.65;;
45326;SDS011;31062;49.678;24.560;2023-04-25T04:22:00;6.13;;;4.70;;
45326;SDS011;31062;49.678;24.560;2023-04-25T04:24:45;7.68;;;4.13;;
45326;SDS011;31062;49.678;24.560;2023-04-25T04:27:37;6.45;;;4.25;;
45326;SDS011;31062;49.678;24.560;2023-04-25T04:30:37;7.50;;;4.57;;
45326;SDS011;31062;49.678;24.560;2023-04-25T04:33:25;7.78;;;4.47;;
45326;SDS011;31062;49.678;24.560;2023-04-25T04:36:16;10.73;;;5.20;;
45326;SDS011;31062;49.678;24.560;2023-04-25T04:39:05;6.88;;;4.88;;
45326;SDS011;31062;49.678;24.560;2023-04-25T04:42:14;5.82;;;4.85;;
45326;SDS011;31062;49.678;24.560;2023-04-25T04:45:15;18.48;;;5.35;;
45326;SDS011;31062;49.678;24.560;2023-04-25T04:48:22;14.95;;;4.78;;
45326;SDS011;31062;49.678;24.560;2023-04-25T04:51:14;5.88;;;4.13;;
45326;SDS011;31062;49.678;24.560;2023-04-25T04:54:08;6.05;;;4.32;;
45326;SDS011;31062;49.678;24.560;2023-04-25T04:57:09;7.90;;;4.18;;
45326;SDS011;31062;49.678;24.560;2023-04-25T05:00:30;8.05;;;4.63;;
45326;SDS011;31062;49.678;24.560;2023-04-25T05:03:39;6.85;;;4.70;;
45326;SDS011;31062;49.678;24.560;2023-04-25T05:06:51;6.10;;;4.80;;
45326;SDS011;31062;49.678;24.560;2023-04-25T05:09:59;5.38;;;4.60;;
45326;SDS011;31062;49.678;24.560;2023-04-25T05:13:01;6.15;;;4.80;;
45326;SDS011;31062;49.678;24.560;2023-04-25T05:16:02;8.65;;;5.50;;
45326;SDS011;31062;49.678;24.560;2023-04-25T05:19:07;6.95;;;5.28;;
45326;SDS011;31062;49.678;24.560;2023-04-25T05:22:05;6.07;;;4.47;;
45326;SDS011;31062;49.678;24.560;2023-04-25T05:24:56;6.25;;;4.65;;
45326;SDS011;31062;49.678;24.560;2023-04-25T05:28:02;6.95;;;4.40;;
45326;SDS011;31062;49.678;24.560;2023-04-25T05:31:26;14.50;;;5.45;;
45326;SDS011;31062;49.678;24.560;2023-04-25T05:34:18;5.03;;;4.53;;
45326;SDS011;31062;49.678;24.560;2023-04-25T05:37:12;6.93;;;5.03;;
45326;SDS011;31062;49.678;24.560;2023-04-25T05:40:10;6.50;;;5.10;;
45326;SDS011;31062;49.678;24.560;2023-04-25T05:43:14;8.30;;;4.63;;
45326;SDS011;31062;49.678;24.560;2023-04-25T05:46:14;7.53;;;5.90;;
45326;SDS011;31062;49.678;24.560;2023-04-25T05:49:20;6.40;;;5.75;;
45326;SDS011;31062;49.678;24.560;2023-04-25T05:52:41;8.52;;;6.18;;
45326;SDS011;31062;49.678;24.560;2023-04-25T05:55:47;9.60;;;6.90;;
45326;SDS011;31062;49.678;24.560;2023-04-25T05:58:40;13.52;;;7.18;;
45326;SDS011;31062;49.678;24.560;2023-04-25T06:01:28;10.18;;;7.43;;
45326;SDS011;31062;49.678;24.560;2023-04-25T06:04:14;10.45;;;7.53;;
45326;SDS011;31062;49.678;24.560;2023-04-25T06:07:00;12.60;;;6.95;;
45326;SDS011;31062;49.678;24.560;2023-04-25T06:09:45;9.38;;;6.60;;
45326;SDS011;31062;49.678;24.560;2023-04-25T06:12:32;8.38;;;7.10;;
45326;SDS011;31062;49.678;24.560;2023-04-25T06:15:18;9.18;;;6.90;;
45326;SDS011;31062;49.678;24.560;2023-04-25T06:18:07;7.90;;;6.90;;
45326;SDS011;31062;49.678;24.560;2023-04-25T06:20:53;14.23;;;6.75;;
45326;SDS011;31062;49.678;24.560;2023-04-25T06:23:40;9.45;;;5.95;;
45326;SDS011;31062;49.678;24.560;2023-04-25T06:26:28;8.60;;;7.03;;
45326;SDS011;31062;49.678;24.560;2023-04-25T06:29:14;7.43;;;6.63;;
45326;SDS011;31062;49.678;24.560;2023-04-25T06:32:00;9.05;;;6.05;;
45326;SDS011;31062;49.678;24.560;2023-04-25T06:34:47;10.73;;;6.40;;
45326;SDS011;31062;49.678;24.560;2023-04-25T06:37:32;6.57;;;5.80;;
45326;SDS011;31062;49.678;24.560;2023-04-25T06:40:20;10.35;;;6.20;;
45326;SDS011;31062;49.678;24.560;2023-04-25T06:43:05;6.45;;;5.30;;
45326;SDS011;31062;49.678;24.560;2023-04-25T06:46:07;6.07;;;5.28;;
45326;SDS011;31062;49.678;24.560;2023-04-25T06:48:59;7.75;;;5.55;;
45326;SDS011;31062;49.678;24.560;2023-04-25T06:51:46;7.30;;;5.78;;
45326;SDS011;31062;49.678;24.560;2023-04-25T06:54:31;6.85;;;4.97;;
45326;SDS011;31062;49.678;24.560;2023-04-25T06:57:23;6.57;;;4.45;;
45326;SDS011;31062;49.678;24.560;2023-04-25T07:00:09;5.00;;;4.50;;
45326;SDS011;31062;49.678;24.560;2023-04-25T07:02:56;8.48;;;4.85;;
45326;SDS011;31062;49.678;24.560;2023-04-25T07:05:41;5.43;;;4.93;;
45326;SDS011;31062;49.678;24.560;2023-04-25T07:08:28;5.78;;;5.18;;
45326;SDS011;31062;49.678;24.560;2023-04-25T07:11:15;5.43;;;4.88;;
45326;SDS011;31062;49.678;24.560;2023-04-25T07:14:01;7.65;;;4.65;;
45326;SDS011;31062;49.678;24.560;2023-04-25T07:16:47;5.68;;;5.03;;
45326;SDS011;31062;49.678;24.560;2023-04-25T07:19:32;5.72;;;4.68;;
45326;SDS011;31062;49.678;24.560;2023-04-25T07:22:19;4.60;;;4.20;;
45326;SDS011;31062;49.678;24.560;2023-04-25T07:25:05;6.20;;;4.35;;
45326;SDS011;31062;49.678;24.560;2023-04-25T07:27:52;5.05;;;4.32;;
45326;SDS011;31062;49.678;24.560;2023-04-25T07:30:39;9.38;;;5.18;;
45326;SDS011;31062;49.678;24.560;2023-04-25T07:33:24;4.80;;;4.28;;
45326;SDS011;31062;49.678;24.560;2023-04-25T07:36:10;6.70;;;4.20;;
45326;SDS011;31062;49.678;24.560;2023-04-25T07:38:57;4.72;;;4.35;;
45326;SDS011;31062;49.678;24.560;2023-04-25T07:41:42;6.32;;;4.63;;
45326;SDS011;31062;49.678;24.560;2023-04-25T07:44:34;4.32;;;3.92;;
45326;SDS011;31062;49.678;24.560;2023-04-25T07:47:27;4.75;;;4.40;;
45326;SDS011;31062;49.678;24.560;2023-04-25T07:50:12;6.40;;;4.70;;
45326;SDS011;31062;49.678;24.560;2023-04-25T07:52:58;5.80;;;5.00;;
45326;SDS011;31062;49.678;24.560;2023-04-25T07:55:50;7.80;;;4.53;;
45326;SDS011;31062;49.678;24.560;2023-04-25T07:58:38;6.93;;;4.55;;
45326;SDS011;31062;49.678;24.560;2023-04-25T08:01:26;5.00;;;4.35;;
45326;SDS011;31062;49.678;24.560;2023-04-25T08:04:16;6.38;;;4.85;;
45326;SDS011;31062;49.678;24.560;2023-04-25T08:07:16;7.47;;;4.43;;
45326;SDS011;31062;49.678;24.560;2023-04-25T08:10:11;6.70;;;4.80;;
45326;SDS011;31062;49.678;24.560;2023-04-25T08:12:57;5.78;;;4.75;;
45326;SDS011;31062;49.678;24.560;2023-04-25T08:15:42;9.32;;;4.53;;
45326;SDS011;31062;49.678;24.560;2023-04-25T08:18:28;4.43;;;4.03;;
45326;SDS011;31062;49.678;24.560;2023-04-25T08:21:13;4.05;;;3.60;;
45326;SDS011;31062;49.678;24.560;2023-04-25T08:23:59;4.22;;;3.83;;
45326;SDS011;31062;49.678;24.560;2023-04-25T08:26:51;4.80;;;4.30;;
45326;SDS011;31062;49.678;24.560;2023-04-25T08:29:39;4.55;;;4.15;;
45326;SDS011;31062;49.678;24.560;2023-04-25T08:32:24;4.65;;;4.07;;
45326;SDS011;31062;49.678;24.560;2023-04-25T08:35:28;4.68;;;4.28;;
45326;SDS011;31062;49.678;24.560;2023-04-25T08:38:14;5.90;;;4.05;;
45326;SDS011;31062;49.678;24.560;2023-04-25T08:41:01;4.03;;;3.63;;
45326;SDS011;31062;49.678;24.560;2023-04-25T08:43:49;4.43;;;4.03;;
45326;SDS011;31062;49.678;24.560;2023-04-25T08:46:40;4.38;;;3.40;;
45326;SDS011;31062;49.678;24.560;2023-04-25T08:49:39;5.70;;;3.53;;
45326;SDS011;31062;49.678;24.560;2023-04-25T08:52:32;5.63;;;3.13;;
45326;SDS011;31062;49.678;24.560;2023-04-25T08:55:25;3.53;;;3.20;;
45326;SDS011;31062;49.678;24.560;2023-04-25T08:58:16;5.85;;;3.60;;
45326;SDS011;31062;49.678;24.560;2023-04-25T09:01:05;3.45;;;3.25;;
45326;SDS011;31062;49.678;24.560;2023-04-25T09:03:59;3.17;;;2.78;;
45326;SDS011;31062;49.678;24.560;2023-04-25T09:06:46;5.22;;;2.97;;
45326;SDS011;31062;49.678;24.560;2023-04-25T09:09:32;3.22;;;2.90;;
45326;SDS011;31062;49.678;24.560;2023-04-25T09:12:18;3.75;;;3.45;;
45326;SDS011;31062;49.678;24.560;2023-04-25T09:15:10;3.65;;;3.17;;
45326;SDS011;31062;49.678;24.560;2023-04-25T09:18:27;4.93;;;2.83;;
45326;SDS011;31062;49.678;24.560;2023-04-25T09:21:21;3.90;;;3.60;;
45326;SDS011;31062;49.678;24.560;2023-04-25T09:24:08;4.20;;;3.45;;
45326;SDS011;31062;49.678;24.560;2023-04-25T09:26:54;4.35;;;3.20;;
45326;SDS011;31062;49.678;24.560;2023-04-25T09:29:39;3.33;;;2.70;;
45326;SDS011;31062;49.678;24.560;2023-04-25T09:32:27;3.10;;;2.65;;
45326;SDS011;31062;49.678;24.560;2023-04-25T09:35:25;3.05;;;2.60;;
45326;SDS011;31062;49.678;24.560;2023-04-25T09:38:15;5.95;;;3.53;;
45326;SDS011;31062;49.678;24.560;2023-04-25T09:41:15;3.13;;;2.78;;
45326;SDS011;31062;49.678;24.560;2023-04-25T09:44:12;3.67;;;2.63;;
45326;SDS011;31062;49.678;24.560;2023-04-25T09:47:00;3.60;;;3.25;;
45326;SDS011;31062;49.678;24.560;2023-04-25T09:49:47;2.92;;;2.60;;
45326;SDS011;31062;49.678;24.560;2023-04-25T09:52:33;7.07;;;2.95;;
45326;SDS011;31062;49.678;24.560;2023-04-25T09:55:32;6.53;;;3.28;;
45326;SDS011;31062;49.678;24.560;2023-04-25T09:58:20;5.05;;;2.95;;
45326;SDS011;31062;49.678;24.560;2023-04-25T10:01:07;3.38;;;2.97;;
45326;SDS011;31062;49.678;24.560;2023-04-25T10:04:04;3.40;;;3.10;;
45326;SDS011;31062;49.678;24.560;2023-04-25T10:07:18;3.35;;;3.05;;
45326;SDS011;31062;49.678;24.560;2023-04-25T10:10:06;3.28;;;2.97;;
45326;SDS011;31062;49.678;24.560;2023-04-25T10:12:52;3.45;;;2.75;;
45326;SDS011;31062;49.678;24.560;2023-04-25T10:15:39;4.85;;;3.03;;
45326;SDS011;31062;49.678;24.560;2023-04-25T10:18:25;4.18;;;3.03;;
45326;SDS011;31062;49.678;24.560;2023-04-25T10:21:12;3.17;;;2.88;;
45326;SDS011;31062;49.678;24.560;2023-04-25T10:23:59;3.58;;;3.08;;
45326;SDS011;31062;49.678;24.560;2023-04-25T10:26:45;3.45;;;3.15;;
45326;SDS011;31062;49.678;24.560;2023-04-25T10:29:32;5.20;;;3.35;;
45326;SDS011;31062;49.678;24.560;2023-04-25T10:32:18;2.80;;;2.55;;
45326;SDS011;31062;49.678;24.560;2023-04-25T10:38:04;3.17;;;2.80;;
45326;SDS011;31062;49.678;24.560;2023-04-25T10:41:04;2.70;;;2.50;;
45326;SDS011;31062;49.678;24.560;2023-04-25T10:43:59;5.05;;;2.95;;
45326;SDS011;31062;49.678;24.560;2023-04-25T10:46:46;3.25;;;2.92;;
45326;SDS011;31062;49.678;24.560;2023-04-25T10:49:42;3.30;;;3.00;;
45326;SDS011;31062;49.678;24.560;2023-04-25T10:52:28;5.30;;;3.58;;
45326;SDS011;31062;49.678;24.560;2023-04-25T10:55:14;4.28;;;3.45;;
45326;SDS011;31062;49.678;24.560;2023-04-25T10:58:01;3.92;;;3.63;;
45326;SDS011;31062;49.678;24.560;2023-04-25T11:00:47;3.97;;;2.70;;
45326;SDS011;31062;49.678;24.560;2023-04-25T11:03:41;3.30;;;3.00;;
45326;SDS011;31062;49.678;24.560;2023-04-25T11:09:39;3.28;;;2.97;;
45326;SDS011;31062;49.678;24.560;2023-04-25T11:12:26;3.75;;;2.70;;
45326;SDS011;31062;49.678;24.560;2023-04-25T11:15:11;4.22;;;2.78;;
45326;SDS011;31062;49.678;24.560;2023-04-25T11:17:57;5.35;;;2.33;;
45326;SDS011;31062;49.678;24.560;2023-04-25T11:20:43;3.10;;;2.75;;
45326;SDS011;31062;49.678;24.560;2023-04-25T11:23:29;3.83;;;2.88;;
45326;SDS011;31062;49.678;24.560;2023-04-25T11:26:15;4.25;;;3.00;;
45326;SDS011;31062;49.678;24.560;2023-04-25T11:29:01;4.28;;;3.22;;
45326;SDS011;31062;49.678;24.560;2023-04-25T11:31:48;3.13;;;2.83;;
45326;SDS011;31062;49.678;24.560;2023-04-25T11:34:33;3.45;;;3.15;;
45326;SDS011;31062;49.678;24.560;2023-04-25T11:37:19;3.17;;;2.95;;
45326;SDS011;31062;49.678;24.560;2023-04-25T11:40:06;3.03;;;2.42;;
45326;SDS011;31062;49.678;24.560;2023-04-25T11:42:53;2.90;;;2.70;;
45326;SDS011;31062;49.678;24.560;2023-04-25T11:45:39;2.60;;;2.40;;
45326;SDS011;31062;49.678;24.560;2023-04-25T11:48:25;2.70;;;2.50;;
45326;SDS011;31062;49.678;24.560;2023-04-25T11:51:11;2.30;;;2.13;;
45326;SDS011;31062;49.678;24.560;2023-04-25T11:53:57;2.70;;;2.50;;
45326;SDS011;31062;49.678;24.560;2023-04-25T11:56:45;5.00;;;3.20;;
45326;SDS011;31062;49.678;24.560;2023-04-25T11:59:31;2.95;;;2.75;;
45326;SDS011;31062;49.678;24.560;2023-04-25T12:02:23;3.42;;;2.92;;
45326;SDS011;31062;49.678;24.560;2023-04-25T12:05:12;3.15;;;2.80;;
45326;SDS011;31062;49.678;24.560;2023-04-25T12:08:16;3.58;;;2.50;;
45326;SDS011;31062;49.678;24.560;2023-04-25T12:11:02;2.60;;;2.40;;
45326;SDS011;31062;49.678;24.560;2023-04-25T12:13:51;2.55;;;2.35;;
45326;SDS011;31062;49.678;24.560;2023-04-25T12:16:42;3.10;;;2.40;;
45326;SDS011;31062;49.678;24.560;2023-04-25T12:19:35;2.33;;;2.15;;
45326;SDS011;31062;49.678;24.560;2023-04-25T12:22:22;3.28;;;2.65;;
45326;SDS011;31062;49.678;24.560;2023-04-25T12:25:13;2.70;;;2.50;;
45326;SDS011;31062;49.678;24.560;2023-04-25T12:28:22;3.72;;;2.28;;
45326;SDS011;31062;49.678;24.560;2023-04-25T12:31:09;1.92;;;1.83;;
45326;SDS011;31062;49.678;24.560;2023-04-25T12:33:55;4.25;;;2.50;;
45326;SDS011;31062;49.678;24.560;2023-04-25T12:36:42;4.15;;;2.50;;
45326;SDS011;31062;49.678;24.560;2023-04-25T12:39:27;2.80;;;2.40;;
45326;SDS011;31062;49.678;24.560;2023-04-25T12:42:12;3.95;;;2.40;;
45326;SDS011;31062;49.678;24.560;2023-04-25T12:44:58;3.88;;;2.90;;
45326;SDS011;31062;49.678;24.560;2023-04-25T12:47:43;2.67;;;2.33;;
45326;SDS011;31062;49.678;24.560;2023-04-25T12:50:30;2.83;;;2.00;;
45326;SDS011;31062;49.678;24.560;2023-04-25T12:53:16;3.00;;;2.80;;
45326;SDS011;31062;49.678;24.560;2023-04-25T12:56:03;5.72;;;2.75;;
45326;SDS011;31062;49.678;24.560;2023-04-25T12:58:49;4.72;;;2.53;;
45326;SDS011;31062;49.678;24.560;2023-04-25T13:01:36;3.20;;;2.55;;
45326;SDS011;31062;49.678;24.560;2023-04-25T13:04:22;3.92;;;3.20;;
45326;SDS011;31062;49.678;24.560;2023-04-25T13:07:08;6.25;;;2.85;;
45326;SDS011;31062;49.678;24.560;2023-04-25T13:09:54;4.20;;;3.33;;
45326;SDS011;31062;49.678;24.560;2023-04-25T13:12:39;3.40;;;2.83;;
45326;SDS011;31062;49.678;24.560;2023-04-25T13:15:25;3.63;;;3.10;;
45326;SDS011;31062;49.678;24.560;2023-04-25T13:18:11;3.90;;;3.03;;
45326;SDS011;31062;49.678;24.560;2023-04-25T13:20:57;3.92;;;3.08;;
45326;SDS011;31062;49.678;24.560;2023-04-25T13:23:43;8.13;;;3.30;;
45326;SDS011;31062;49.678;24.560;2023-04-25T13:26:32;4.78;;;3.30;;
45326;SDS011;31062;49.678;24.560;2023-04-25T13:29:17;3.92;;;3.03;;
45326;SDS011;31062;49.678;24.560;2023-04-25T13:32:02;7.20;;;3.47;;
45326;SDS011;31062;49.678;24.560;2023-04-25T13:34:48;5.10;;;3.08;;
45326;SDS011;31062;49.678;24.560;2023-04-25T13:37:34;3.33;;;3.03;;
45326;SDS011;31062;49.678;24.560;2023-04-25T13:40:20;2.92;;;2.67;;
45326;SDS011;31062;49.678;24.560;2023-04-25T13:43:09;3.30;;;3.00;;
45326;SDS011;31062;49.678;24.560;2023-04-25T13:45:55;5.00;;;3.22;;
45326;SDS011;31062;49.678;24.560;2023-04-25T13:48:40;3.65;;;3.35;;
45326;SDS011;31062;49.678;24.560;2023-04-25T13:51:31;3.63;;;3.10;;
45326;SDS011;31062;49.678;24.560;2023-04-25T13:54:16;3.67;;;3.22;;
45326;SDS011;31062;49.678;24.560;2023-04-25T13:57:02;3.05;;;2.78;;
45326;SDS011;31062;49.678;24.560;2023-04-25T13:59:47;3.10;;;2.88;;
45326;SDS011;31062;49.678;24.560;2023-04-25T14:02:33;3.88;;;3.10;;
45326;SDS011;31062;49.678;24.560;2023-04-25T14:05:18;4.65;;;4.25;;
45326;SDS011;31062;49.678;24.560;2023-04-25T14:08:06;5.95;;;5.10;;
45326;SDS011;31062;49.678;24.560;2023-04-25T14:10:54;6.05;;;4.43;;
45326;SDS011;31062;49.678;24.560;2023-04-25T14:13:40;8.32;;;5.93;;
45326;SDS011;31062;49.678;24.560;2023-04-25T14:16:25;6.15;;;5.25;;
45326;SDS011;31062;49.678;24.560;2023-04-25T14:19:11;5.00;;;4.03;;
45326;SDS011;31062;49.678;24.560;2023-04-25T14:21:57;4.80;;;4.28;;
45326;SDS011;31062;49.678;24.560;2023-04-25T14:24:42;5.95;;;4.22;;
45326;SDS011;31062;49.678;24.560;2023-04-25T14:27:28;4.90;;;4.40;;
45326;SDS011;31062;49.678;24.560;2023-04-25T14:30:13;4.90;;;4.50;;
45326;SDS011;31062;49.678;24.560;2023-04-25T14:32:58;8.20;;;4.20;;
45326;SDS011;31062;49.678;24.560;2023-04-25T14:35:44;6.88;;;4.20;;
45326;SDS011;31062;49.678;24.560;2023-04-25T14:38:31;5.68;;;4.78;;
45326;SDS011;31062;49.678;24.560;2023-04-25T14:41:16;7.75;;;5.03;;
45326;SDS011;31062;49.678;24.560;2023-04-25T14:44:01;6.40;;;5.65;;
45326;SDS011;31062;49.678;24.560;2023-04-25T14:46:48;5.65;;;4.90;;
45326;SDS011;31062;49.678;24.560;2023-04-25T14:49:36;4.88;;;4.32;;
45326;SDS011;31062;49.678;24.560;2023-04-25T14:52:22;4.28;;;3.88;;
45326;SDS011;31062;49.678;24.560;2023-04-25T14:55:07;5.10;;;3.67;;
45326;SDS011;31062;49.678;24.560;2023-04-25T14:57:53;4.30;;;3.42;;
45326;SDS011;31062;49.678;24.560;2023-04-25T15:00:42;4.25;;;3.00;;
45326;SDS011;31062;49.678;24.560;2023-04-25T15:03:28;5.35;;;2.80;;
45326;SDS011;31062;49.678;24.560;2023-04-25T15:06:14;2.55;;;2.35;;
45326;SDS011;31062;49.678;24.560;2023-04-25T15:09:04;3.22;;;2.53;;
45326;SDS011;31062;49.678;24.560;2023-04-25T15:11:50;6.22;;;2.92;;
45326;SDS011;31062;49.678;24.560;2023-04-25T15:14:36;2.60;;;2.40;;
45326;SDS011;31062;49.678;24.560;2023-04-25T15:17:22;3.72;;;2.53;;
45326;SDS011;31062;49.678;24.560;2023-04-25T15:20:10;2.40;;;2.20;;
45326;SDS011;31062;49.678;24.560;2023-04-25T15:23:01;4.97;;;3.50;;
45326;SDS011;31062;49.678;24.560;2023-04-25T15:25:49;4.10;;;2.38;;
45326;SDS011;31062;49.678;24.560;2023-04-25T15:28:38;2.85;;;2.10;;
45326;SDS011;31062;49.678;24.560;2023-04-25T15:31:24;2.45;;;2.25;;
45326;SDS011;31062;49.678;24.560;2023-04-25T15:34:10;2.38;;;2.17;;
45326;SDS011;31062;49.678;24.560;2023-04-25T15:36:56;3.63;;;1.98;;
45326;SDS011;31062;49.678;24.560;2023-04-25T15:39:43;1.95;;;1.85;;
45326;SDS011;31062;49.678;24.560;2023-04-25T15:42:29;2.55;;;2.28;;
45326;SDS011;31062;49.678;24.560;2023-04-25T15:45:18;2.55;;;2.28;;
45326;SDS011;31062;49.678;24.560;2023-04-25T15:48:05;4.03;;;2.13;;
45326;SDS011;31062;49.678;24.560;2023-04-25T15:50:51;2.30;;;1.95;;
45326;SDS011;31062;49.678;24.560;2023-04-25T15:53:36;3.00;;;2.70;;
45326;SDS011;31062;49.678;24.560;2023-04-25T15:56:22;5.80;;;3.65;;
45326;SDS011;31062;49.678;24.560;2023-04-25T15:59:08;3.47;;;3.17;;
45326;SDS011;31062;49.678;24.560;2023-04-25T16:01:53;4.05;;;3.47;;
45326;SDS011;31062;49.678;24.560;2023-04-25T16:04:39;3.10;;;2.80;;
45326;SDS011;31062;49.678;24.560;2023-04-25T16:07:25;3.30;;;2.38;;
45326;SDS011;31062;49.678;24.560;2023-04-25T16:10:11;3.20;;;2.90;;
45326;SDS011;31062;49.678;24.560;2023-04-25T16:12:57;4.30;;;3.90;;
45326;SDS011;31062;49.678;24.560;2023-04-25T16:15:43;4.50;;;4.10;;
45326;SDS011;31062;49.678;24.560;2023-04-25T16:18:28;1.92;;;1.70;;
45326;SDS011;31062;49.678;24.560;2023-04-25T16:21:14;2.35;;;1.90;;
45326;SDS011;31062;49.678;24.560;2023-04-25T16:24:01;2.65;;;2.05;;
45326;SDS011;31062;49.678;24.560;2023-04-25T16:26:46;1.77;;;1.42;;
45326;SDS011;31062;49.678;24.560;2023-04-25T16:29:32;1.80;;;1.70;;
45326;SDS011;31062;49.678;24.560;2023-04-25T16:32:18;1.65;;;1.27;;
45326;SDS011;31062;49.678;24.560;2023-04-25T16:35:07;3.42;;;1.42;;
45326;SDS011;31062;49.678;24.560;2023-04-25T16:37:53;3.88;;;1.92;;
45326;SDS011;31062;49.678;24.560;2023-04-25T16:40:39;2.53;;;1.98;;
45326;SDS011;31062;49.678;24.560;2023-04-25T16:43:27;2.58;;;2.30;;
45326;SDS011;31062;49.678;24.560;2023-04-25T16:46:13;2.65;;;2.45;;
45326;SDS011;31062;49.678;24.560;2023-04-25T16:48:58;2.13;;;1.63;;